Time;durP1;ratioP1;P1;durP2;ratioP2;P2;SDS_P1;SDS_P2;PMS_P1;PMS_P2;Temp;Humidity;BMP_temperature;BMP_pressure;BME280_temperature;BME280_humidity;BME280_pressure;Samples;Min_cycle;Max_cycle;Signal;HPM_P1;HPM_P2
2022/12/19 00:01:04;;;;;;;9.32;6.43;;;9.80;56.50;;;;;;5054396;28;20506;-68
2022/12/19 00:03:29;;;;;;;8.77;5.45;;;9.80;57.10;;;;;;5054261;28;20052;-68
2022/12/19 00:05:55;;;;;;;9.50;6.15;;;9.80;57.10;;;;;;5054164;28;20033;-68
2022/12/19 00:08:20;;;;;;;9.32;6.07;;;9.80;57.10;;;;;;5054099;28;20025;-68
2022/12/19 00:10:58;;;;;;;9.55;5.72;;;9.80;57.10;;;;;;5054134;28;20502;-68
2022/12/19 00:13:24;;;;;;;11.55;6.25;;;9.80;57.10;;;;;;5054063;28;20033;-68
2022/12/19 00:15:50;;;;;;;8.20;5.97;;;9.80;57.10;;;;;;5053986;28;20021;-68
2022/12/19 00:18:15;;;;;;;9.13;5.68;;;10.00;57.30;;;;;;5054120;28;20029;-68
2022/12/19 00:20:41;;;;;;;8.38;5.93;;;9.80;57.20;;;;;;5053596;28;20092;-69
2022/12/19 00:23:07;;;;;;;9.27;5.70;;;9.80;57.20;;;;;;5053888;28;20056;-68
2022/12/19 00:25:32;;;;;;;7.53;5.60;;;9.80;57.30;;;;;;5053817;28;20483;-68
2022/12/19 00:27:58;;;;;;;7.10;5.10;;;9.80;57.30;;;;;;5053693;28;20025;-69
2022/12/19 00:30:24;;;;;;;9.07;5.65;;;10.00;57.30;;;;;;5053801;28;20112;-68
2022/12/19 00:32:49;;;;;;;6.82;5.13;;;9.80;57.30;;;;;;5035713;28;20028;-69
2022/12/19 00:35:15;;;;;;;8.07;5.15;;;10.20;57.50;;;;;;5053738;28;20487;-68
2022/12/19 00:37:41;;;;;;;7.47;4.95;;;9.80;57.40;;;;;;5053716;28;20033;-68
2022/12/19 00:40:07;;;;;;;9.20;5.65;;;10.00;57.50;;;;;;5053387;28;20067;-68
2022/12/19 00:42:32;;;;;;;8.88;6.25;;;9.80;57.40;;;;;;5053463;28;20025;-69
2022/12/19 00:44:58;;;;;;;10.38;6.10;;;9.80;57.50;;;;;;5053478;28;20032;-69
2022/12/19 00:47:24;;;;;;;7.80;5.43;;;9.70;57.50;;;;;;5053668;28;20556;-68
2022/12/19 00:49:50;;;;;;;8.55;5.47;;;;;;;;;;5053176;28;20037;-68
2022/12/19 00:52:15;;;;;;;8.85;5.78;;;9.80;57.00;;;;;;5053338;28;20075;-68
2022/12/19 00:54:41;;;;;;;9.23;6.05;;;9.70;57.50;;;;;;5053279;28;20043;-68
2022/12/19 00:57:06;;;;;;;9.80;5.97;;;9.80;57.60;;;;;;5053161;28;20394;-68
2022/12/19 00:59:32;;;;;;;8.00;5.25;;;9.80;57.60;;;;;;5053209;28;20029;-68
2022/12/19 01:01:58;;;;;;;7.45;5.25;;;9.80;57.70;;;;;;5053040;28;20036;-68
2022/12/19 01:04:23;;;;;;;8.98;6.13;;;9.80;57.70;;;;;;5053031;28;20035;-68
2022/12/19 01:06:49;;;;;;;8.50;5.45;;;9.80;57.80;;;;;;5053025;28;20063;-68
2022/12/19 01:09:15;;;;;;;8.77;5.78;;;9.80;57.70;;;;;;5052938;28;20493;-68
2022/12/19 01:14:25;;;;;;;7.65;5.32;;;9.80;57.70;;;;;;5053345;28;20498;-73
2022/12/19 01:16:51;;;;;;;8.18;5.10;;;9.80;57.80;;;;;;5052870;28;20029;-73
2022/12/19 01:19:17;;;;;;;8.30;5.38;;;9.80;73.60;;;;;;5052691;28;20021;-73
2022/12/19 01:21:43;;;;;;;6.75;4.63;;;9.80;57.70;;;;;;5052701;28;20037;-73
2022/12/19 01:24:09;;;;;;;7.65;5.20;;;9.80;57.70;;;;;;5052616;28;20052;-73
2022/12/19 01:26:35;;;;;;;7.28;5.20;;;9.80;57.90;;;;;;5052736;28;20071;-73
2022/12/19 01:29:00;;;;;;;7.30;4.75;;;9.80;57.80;;;;;;5052536;28;20033;-73
2022/12/19 01:31:26;;;;;;;7.82;5.30;;;9.70;57.80;;;;;;5052576;28;20048;-73
2022/12/19 01:33:52;;;;;;;6.85;4.60;;;9.80;57.80;;;;;;5052551;28;20029;-73
2022/12/19 01:36:17;;;;;;;6.50;4.65;;;10.00;58.00;;;;;;5052521;28;20025;-73
2022/12/19 01:38:43;;;;;;;7.45;4.60;;;9.80;57.80;;;;;;5052483;28;20051;-73
2022/12/19 01:41:09;;;;;;;5.85;4.47;;;9.80;57.80;;;;;;5052383;28;20024;-73
2022/12/19 01:43:58;;;;;;;6.75;4.65;;;9.80;57.90;;;;;;5052402;28;20166;-73
2022/12/19 01:46:46;;;;;;;6.03;4.53;;;9.80;57.80;;;;;;5052336;28;20033;-73
2022/12/19 01:49:26;;;;;;;6.43;4.40;;;9.80;57.80;;;;;;5052335;28;20047;-73
2022/12/19 01:51:56;;;;;;;7.03;4.78;;;9.80;57.90;;;;;;5051936;28;20052;-73
2022/12/19 01:54:28;;;;;;;8.30;5.53;;;9.80;57.50;;;;;;5052288;28;20025;-73
2022/12/19 01:56:56;;;;;;;7.25;4.70;;;9.80;58.00;;;;;;5052281;28;20021;-73
2022/12/19 01:59:29;;;;;;;5.97;3.85;;;9.80;57.90;;;;;;5052137;28;20108;-73
2022/12/19 02:02:03;;;;;;;7.15;4.85;;;9.80;57.90;;;;;;5052186;28;20183;-73
2022/12/19 02:04:29;;;;;;;5.95;4.45;;;9.80;58.00;;;;;;5052085;28;20610;-73
2022/12/19 02:06:56;;;;;;;7.82;4.70;;;9.80;58.00;;;;;;5052119;28;20088;-68
2022/12/19 02:09:22;;;;;;;7.05;5.38;;;9.80;58.20;;;;;;5051971;28;20056;-73
2022/12/19 02:11:47;;;;;;;6.38;4.22;;;9.80;58.30;;;;;;5051948;28;20468;-73
2022/12/19 02:14:13;;;;;;;6.00;4.40;;;9.80;58.20;;;;;;5052043;28;20029;-73
2022/12/19 02:16:59;;;;;;;6.85;4.47;;;9.80;58.20;;;;;;5051884;28;20039;-73
2022/12/19 02:19:51;;;;;;;6.03;4.53;;;9.80;58.10;;;;;;5051844;28;20104;-73
2022/12/19 02:22:32;;;;;;;6.28;4.57;;;9.90;58.10;;;;;;5013489;28;20053;-73
2022/12/19 02:26:01;;;;;;;5.40;4.07;;;9.90;58.40;;;;;;5051955;28;20021;-73
2022/12/19 02:28:44;;;;;;;5.72;4.18;;;9.80;58.50;;;;;;4929590;29;20129;-69
2022/12/19 02:31:19;;;;;;;5.30;4.25;;;9.80;58.40;;;;;;4951704;29;20066;-69
2022/12/19 02:33:45;;;;;;;7.18;4.75;;;;;;;;;;5034365;28;20161;-69
2022/12/19 02:36:28;;;;;;;6.00;3.83;;;9.80;58.10;;;;;;5051774;28;20391;-69
2022/12/19 02:39:04;;;;;;;5.88;4.05;;;9.80;58.60;;;;;;5051833;28;20411;-68
2022/12/19 02:41:43;;;;;;;5.90;4.18;;;9.80;58.60;;;;;;5051696;28;20070;-69
2022/12/19 02:44:21;;;;;;;6.13;4.27;;;9.90;58.50;;;;;;5051755;28;20048;-74
2022/12/19 02:46:48;;;;;;;6.28;4.22;;;9.90;58.70;;;;;;5051829;28;20029;-73
2022/12/19 02:49:14;;;;;;;6.60;3.97;;;9.80;58.50;;;;;;5051578;28;20037;-74
2022/12/19 02:51:39;;;;;;;5.10;3.80;;;9.80;58.80;;;;;;5051618;28;20021;-73
2022/12/19 02:54:05;;;;;;;6.18;3.90;;;9.90;58.80;;;;;;5051584;28;20032;-73
2022/12/19 02:56:49;;;;;;;4.13;3.72;;;9.90;59.00;;;;;;5051633;28;20357;-74
2022/12/19 02:59:15;;;;;;;6.50;4.57;;;9.80;59.00;;;;;;5051813;28;20112;-73
2022/12/19 03:01:50;;;;;;;5.25;3.95;;;9.80;59.00;;;;;;5051479;28;20444;-74
2022/12/19 03:04:41;;;;;;;5.85;4.28;;;9.90;58.90;;;;;;5054251;28;20047;-73
2022/12/19 03:07:36;;;;;;;5.20;3.97;;;9.80;58.70;;;;;;5055410;28;20056;-74
2022/12/19 03:10:27;;;;;;;5.63;3.95;;;9.90;59.00;;;;;;5055340;28;20029;-73
2022/12/19 03:12:59;;;;;;;5.68;4.07;;;9.90;59.00;;;;;;5055341;28;20033;-74
2022/12/19 03:15:25;;;;;;;5.32;3.97;;;9.90;59.20;;;;;;5055225;28;20483;-73
2022/12/19 03:17:54;;;;;;;4.95;3.67;;;9.90;59.90;;;;;;5055177;28;20112;-74
2022/12/19 03:20:44;;;;;;;4.60;3.38;;;9.80;59.00;;;;;;5054849;28;20049;-73
2022/12/19 03:23:11;;;;;;;3.83;3.28;;;9.90;59.00;;;;;;5055173;28;20075;-74
2022/12/19 03:25:39;;;;;;;4.47;3.38;;;9.90;59.10;;;;;;5054959;28;20029;-74
2022/12/19 03:28:17;;;;;;;3.88;3.05;;;10.00;59.10;;;;;;5054981;28;20638;-74
2022/12/19 03:30:45;;;;;;;3.97;3.00;;;9.90;59.20;;;;;;5054923;28;20063;-74
2022/12/19 03:33:14;;;;;;;5.03;3.53;;;9.90;59.40;;;;;;5054923;28;20086;-73
2022/12/19 03:35:42;;;;;;;4.10;3.13;;;9.90;58.90;;;;;;5054883;28;20063;-74
2022/12/19 03:38:09;;;;;;;3.35;2.53;;;9.90;59.40;;;;;;5054779;28;20350;-69
2022/12/19 03:40:37;;;;;;;3.47;2.67;;;9.90;59.30;;;;;;5054875;28;20513;-74
2022/12/19 03:43:08;;;;;;;4.82;3.45;;;9.90;59.50;;;;;;5054558;28;20071;-74
2022/12/19 03:45:37;;;;;;;3.90;3.25;;;9.90;60.20;;;;;;5054723;28;20017;-74
2022/12/19 03:48:10;;;;;;;3.58;2.92;;;9.90;59.60;;;;;;5054516;28;20036;-74
2022/12/19 03:51:01;;;;;;;3.15;2.80;;;9.90;60.00;;;;;;5054606;28;20047;-74
2022/12/19 03:53:44;;;;;;;4.25;3.15;;;9.90;59.40;;;;;;5054606;28;20025;-73
2022/12/19 03:56:34;;;;;;;3.75;2.50;;;9.90;59.40;;;;;;5054454;28;20025;-73
2022/12/19 03:59:06;;;;;;;3.35;2.47;;;10.00;59.50;;;;;;5054573;28;20029;-73
2022/12/19 04:01:34;;;;;;;3.20;2.35;;;10.00;59.50;;;;;;5054486;28;20021;-72
2022/12/19 04:04:01;;;;;;;2.88;2.50;;;10.00;59.40;;;;;;5054236;28;20029;-72
2022/12/19 04:06:29;;;;;;;2.97;2.35;;;10.00;59.60;;;;;;5054223;28;20017;-72
2022/12/19 04:08:58;;;;;;;2.78;2.50;;;10.00;59.80;;;;;;5054134;28;20045;-72
2022/12/19 04:11:26;;;;;;;2.58;2.25;;;10.00;59.30;;;;;;5054110;28;20021;-72
2022/12/19 04:14:01;;;;;;;3.05;2.45;;;9.90;59.80;;;;;;5053732;28;20036;-72
2022/12/19 04:16:43;;;;;;;2.47;2.22;;;9.90;75.40;;;;;;5054142;28;20025;-70
2022/12/19 04:19:23;;;;;;;3.40;2.45;;;10.00;75.80;;;;;;5053916;28;20028;-69
2022/12/19 04:21:58;;;;;;;3.07;2.50;;;10.00;60.00;;;;;;5053895;28;20040;-69
2022/12/19 04:24:33;;;;;;;2.38;1.80;;;10.00;60.00;;;;;;5053924;28;20436;-69
2022/12/19 04:27:02;;;;;;;2.72;2.25;;;10.00;60.00;;;;;;5053861;28;20025;-69
2022/12/19 04:29:31;;;;;;;2.00;1.80;;;10.00;60.10;;;;;;5053734;28;20041;-69
2022/12/19 04:31:57;;;;;;;2.05;1.77;;;10.00;60.60;;;;;;5053745;28;20105;-70
2022/12/19 04:34:23;;;;;;;2.55;2.00;;;10.10;60.00;;;;;;5054086;28;20052;-70
2022/12/19 04:36:50;;;;;;;3.25;2.00;;;10.10;60.00;;;;;;5053746;28;20023;-70
2022/12/19 04:39:15;;;;;;;2.13;1.83;;;10.00;60.10;;;;;;5053699;28;20408;-69
2022/12/19 04:41:41;;;;;;;2.67;2.00;;;10.10;60.30;;;;;;5053644;28;20060;-70
2022/12/19 04:44:06;;;;;;;2.15;1.95;;;10.10;60.40;;;;;;5053479;28;20163;-70
2022/12/19 04:46:32;;;;;;;2.25;1.65;;;10.10;60.30;;;;;;5035607;28;20049;-70
2022/12/19 04:48:58;;;;;;;1.98;1.77;;;10.10;61.00;;;;;;5053378;28;20048;-69
2022/12/19 04:51:23;;;;;;;2.13;1.70;;;10.10;60.30;;;;;;5053470;28;20028;-69
2022/12/19 04:53:49;;;;;;;1.63;1.52;;;10.10;60.40;;;;;;5053412;28;20118;-69
2022/12/19 04:56:15;;;;;;;2.30;2.10;;;10.20;60.30;;;;;;5053260;28;20167;-69
2022/12/19 04:58:40;;;;;;;2.20;2.00;;;10.20;61.00;;;;;;5053241;28;20029;-69
2022/12/19 05:06:59;;;;;;;2.10;1.90;;;10.20;60.80;;;;;;5020654;28;20527;-73
2022/12/19 05:09:25;;;;;;;1.80;1.70;;;10.20;61.10;;;;;;5013700;28;20112;-73
2022/12/19 05:11:51;;;;;;;2.35;2.15;;;10.20;61.10;;;;;;5013840;28;20033;-73
2022/12/19 05:14:16;;;;;;;2.50;2.30;;;10.20;60.80;;;;;;4996074;28;20502;-73
2022/12/19 05:16:42;;;;;;;3.00;2.53;;;10.20;60.90;;;;;;5013646;28;20033;-73
2022/12/19 05:19:08;;;;;;;2.75;2.42;;;;;;;;;;5013660;28;20026;-73
2022/12/19 05:21:33;;;;;;;3.55;2.80;;;10.20;60.00;;;;;;5013476;28;20411;-73
2022/12/19 05:23:59;;;;;;;5.25;3.25;;;10.20;61.00;;;;;;5013458;28;20088;-73
2022/12/19 05:26:25;;;;;;;2.78;2.50;;;;;;;;;;5012739;28;20054;-73
2022/12/19 05:28:51;;;;;;;4.03;3.33;;;10.20;60.50;;;;;;5013312;28;20034;-73
2022/12/19 05:31:19;;;;;;;3.35;2.58;;;10.30;61.00;;;;;;5013210;28;20041;-73
2022/12/19 05:33:45;;;;;;;3.50;2.95;;;10.30;61.20;;;;;;5013453;28;20417;-73
2022/12/19 05:36:13;;;;;;;3.63;2.38;;;10.30;61.60;;;;;;5013333;28;20533;-73
2022/12/19 05:38:39;;;;;;;3.95;3.10;;;10.30;61.60;;;;;;5013178;28;20024;-73
2022/12/19 05:41:10;;;;;;;3.65;2.97;;;10.30;61.80;;;;;;5013189;28;20022;-73
2022/12/19 05:43:36;;;;;;;3.63;3.00;;;10.30;61.90;;;;;;5013131;28;20380;-73
2022/12/19 05:46:03;;;;;;;3.85;3.30;;;10.30;61.80;;;;;;5013154;28;20018;-73
2022/12/19 05:48:29;;;;;;;4.03;3.10;;;10.30;61.80;;;;;;5013016;28;20076;-73
2022/12/19 05:50:54;;;;;;;3.33;3.03;;;10.30;62.10;;;;;;5012951;28;20030;-73
2022/12/19 05:53:20;;;;;;;5.03;2.88;;;10.30;61.90;;;;;;5013110;28;20075;-73
2022/12/19 05:55:46;;;;;;;3.17;2.88;;;10.30;62.00;;;;;;5013050;28;20030;-73
2022/12/19 05:58:11;;;;;;;5.43;3.40;;;10.40;62.00;;;;;;5012841;28;20025;-74
2022/12/19 06:00:37;;;;;;;4.65;3.72;;;10.30;62.20;;;;;;5012631;28;20385;-74
2022/12/19 06:03:03;;;;;;;3.50;3.20;;;10.40;62.30;;;;;;5012343;28;20046;-74
2022/12/19 06:05:28;;;;;;;4.40;3.78;;;10.40;62.30;;;;;;5012628;28;20085;-74
2022/12/19 06:07:54;;;;;;;5.22;4.72;;;10.40;62.40;;;;;;5012625;28;20026;-74
2022/12/19 06:10:19;;;;;;;5.18;4.78;;;10.40;62.90;;;;;;5012709;28;20041;-74
2022/12/19 06:12:45;;;;;;;5.90;5.40;;;10.40;62.60;;;;;;5012558;28;20148;-75
2022/12/19 06:15:11;;;;;;;6.53;5.93;;;;;;;;;;5012526;28;20032;-75
2022/12/19 06:17:37;;;;;;;6.78;6.18;;;10.50;62.60;;;;;;5012403;28;20022;-76
2022/12/19 06:20:03;;;;;;;7.32;6.72;;;10.20;62.70;;;;;;5012350;28;20384;-76
2022/12/19 06:22:28;;;;;;;13.00;7.43;;;10.40;63.00;;;;;;5012524;28;20025;-76
2022/12/19 06:24:54;;;;;;;10.45;6.43;;;10.50;63.40;;;;;;5012461;28;20503;-76
2022/12/19 06:27:20;;;;;;;12.02;8.07;;;10.50;63.90;;;;;;5012337;28;20112;-76
2022/12/19 06:29:45;;;;;;;25.10;6.50;;;10.50;63.60;;;;;;5012317;28;20029;-76
2022/12/19 06:32:11;;;;;;;15.65;6.78;;;10.50;63.60;;;;;;5012434;28;20565;-74
2022/12/19 06:34:37;;;;;;;10.27;6.20;;;10.50;64.00;;;;;;5015144;28;20037;-74
2022/12/19 06:37:02;;;;;;;11.10;6.18;;;10.50;63.90;;;;;;5001086;28;20384;-73
2022/12/19 06:39:29;;;;;;;8.50;6.03;;;;;;;;;;5016505;28;20029;-73
2022/12/19 06:44:39;;;;;;;10.38;5.20;;;;;;;;;;5016480;28;20037;-72
2022/12/19 06:47:04;;;;;;;13.70;4.90;;;10.50;63.20;;;;;;5016280;28;20400;-72
2022/12/19 06:49:30;;;;;;;9.57;4.95;;;10.50;63.70;;;;;;5016337;28;20069;-72
2022/12/19 06:51:56;;;;;;;5.72;4.95;;;10.50;63.60;;;;;;5016191;28;20021;-72
2022/12/19 06:54:21;;;;;;;7.32;4.75;;;10.50;63.90;;;;;;5015344;28;20021;-72
2022/12/19 06:56:47;;;;;;;8.35;5.03;;;10.50;64.00;;;;;;5016007;28;20109;-72
2022/12/19 06:59:14;;;;;;;5.93;4.65;;;10.50;64.00;;;;;;5016000;28;20032;-73
2022/12/19 07:02:05;;;;;;;5.50;4.40;;;10.60;64.40;;;;;;5015915;28;20475;-72
2022/12/19 07:04:40;;;;;;;7.05;3.80;;;10.60;64.50;;;;;;5016041;28;20030;-72
2022/12/19 07:07:06;;;;;;;4.72;3.80;;;10.60;64.50;;;;;;5015829;28;20484;-73
2022/12/19 07:09:33;;;;;;;5.97;3.60;;;10.60;64.50;;;;;;5015895;28;20042;-73
2022/12/19 07:12:00;;;;;;;3.25;2.95;;;10.60;64.70;;;;;;5016028;28;20018;-72
2022/12/19 07:14:25;;;;;;;5.15;3.45;;;10.60;64.70;;;;;;5015446;28;20095;-72
2022/12/19 07:16:53;;;;;;;3.72;3.22;;;10.60;64.70;;;;;;5015686;28;20053;-72
2022/12/19 07:19:20;;;;;;;4.43;3.20;;;10.70;64.80;;;;;;5015308;28;20104;-72
2022/12/19 07:21:46;;;;;;;4.00;3.13;;;10.70;65.00;;;;;;5015459;28;20033;-72
2022/12/19 07:24:13;;;;;;;3.88;2.90;;;10.70;65.10;;;;;;5015350;28;20026;-72
2022/12/19 07:26:40;;;;;;;4.53;2.97;;;10.70;65.00;;;;;;5015534;28;20033;-72
2022/12/19 07:29:06;;;;;;;3.85;2.95;;;10.80;65.10;;;;;;5015408;28;20072;-72
2022/12/19 07:31:32;;;;;;;3.38;2.55;;;10.80;65.20;;;;;;5015453;28;20048;-75
2022/12/19 07:33:58;;;;;;;2.83;2.50;;;10.80;65.10;;;;;;5015444;28;20535;-75
2022/12/19 07:36:23;;;;;;;2.88;2.47;;;10.80;65.00;;;;;;5015375;28;20037;-74
2022/12/19 07:38:49;;;;;;;3.00;2.33;;;10.80;65.30;;;;;;5015448;28;20033;-74
2022/12/19 07:41:15;;;;;;;2.83;2.58;;;10.90;65.10;;;;;;4997539;28;20492;-74
2022/12/19 07:43:41;;;;;;;3.13;2.58;;;10.90;65.20;;;;;;5015291;28;20022;-74
2022/12/19 07:46:06;;;;;;;3.25;2.50;;;10.90;65.30;;;;;;5015407;28;20029;-74
2022/12/19 07:48:32;;;;;;;3.83;2.47;;;10.90;65.40;;;;;;5014711;28;20423;-74
2022/12/19 07:50:57;;;;;;;2.97;2.30;;;11.00;65.40;;;;;;5014879;28;20108;-74
2022/12/19 07:53:23;;;;;;;3.60;2.50;;;11.00;65.60;;;;;;5015144;28;20377;-75
2022/12/19 07:55:51;;;;;;;4.55;2.47;;;11.00;65.40;;;;;;5014985;28;20084;-73
2022/12/19 07:58:17;;;;;;;2.47;2.28;;;11.10;65.30;;;;;;5015052;28;20021;-74
2022/12/19 08:00:43;;;;;;;2.58;2.30;;;11.10;65.40;;;;;;5014946;28;20087;-75
2022/12/19 08:03:08;;;;;;;2.30;2.10;;;11.10;65.10;;;;;;5014747;28;20128;-74
2022/12/19 08:05:34;;;;;;;2.28;1.98;;;11.10;65.20;;;;;;5014801;28;20025;-74
2022/12/19 08:07:59;;;;;;;3.03;2.20;;;11.20;65.40;;;;;;5014721;28;20034;-74
2022/12/19 08:10:25;;;;;;;2.45;1.95;;;11.20;65.20;;;;;;5014635;28;20117;-74
2022/12/19 08:12:51;;;;;;;3.05;1.70;;;11.20;65.10;;;;;;5014704;28;20030;-75
2022/12/19 08:15:17;;;;;;;5.07;2.05;;;11.20;65.30;;;;;;5014644;28;20030;-74
2022/12/19 08:17:43;;;;;;;2.72;2.00;;;11.30;65.10;;;;;;5014705;28;20033;-74
2022/12/19 08:20:13;;;;;;;5.18;1.95;;;11.20;65.50;;;;;;5014464;28;20104;-74
2022/12/19 08:22:38;;;;;;;2.95;2.00;;;11.30;65.10;;;;;;5014427;28;20530;-75
2022/12/19 08:25:05;;;;;;;2.58;1.60;;;11.30;65.10;;;;;;5014285;28;20025;-74
2022/12/19 08:27:31;;;;;;;2.17;1.70;;;11.30;65.40;;;;;;4996961;28;20034;-74
2022/12/19 08:29:57;;;;;;;2.45;1.80;;;11.40;65.70;;;;;;5014450;28;20029;-74
2022/12/19 08:32:22;;;;;;;2.42;1.77;;;11.50;65.50;;;;;;5014275;28;20018;-75
2022/12/19 08:34:48;;;;;;;5.95;2.03;;;11.40;65.60;;;;;;5014386;28;20033;-74
2022/12/19 08:37:14;;;;;;;1.88;1.75;;;11.50;65.90;;;;;;5014271;28;20119;-74
2022/12/19 08:39:40;;;;;;;1.83;1.67;;;11.50;65.40;;;;;;4996541;28;20085;-74
2022/12/19 08:42:05;;;;;;;3.55;1.90;;;11.50;65.30;;;;;;5014069;28;20018;-74
2022/12/19 08:44:31;;;;;;;1.70;1.55;;;11.50;65.40;;;;;;5014161;28;20034;-75
2022/12/19 08:46:56;;;;;;;2.25;2.00;;;11.50;65.50;;;;;;5014023;28;20018;-74
2022/12/19 08:49:22;;;;;;;2.42;1.50;;;11.50;65.60;;;;;;5014007;28;20033;-74
2022/12/19 08:51:47;;;;;;;2.00;1.80;;;11.50;65.30;;;;;;5014194;28;20022;-74
2022/12/19 08:54:13;;;;;;;2.00;1.80;;;11.60;65.40;;;;;;5014030;28;20462;-74
2022/12/19 08:56:39;;;;;;;2.67;1.98;;;11.60;65.60;;;;;;5013920;28;20024;-73
2022/12/19 08:59:05;;;;;;;2.95;1.90;;;11.60;65.50;;;;;;5013886;28;20388;-74
2022/12/19 09:01:30;;;;;;;1.67;1.35;;;11.60;65.90;;;;;;5012322;28;20452;-74
2022/12/19 09:03:59;;;;;;;2.33;1.90;;;11.70;65.80;;;;;;5013735;28;20068;-74
2022/12/19 09:06:25;;;;;;;2.42;2.05;;;11.70;65.70;;;;;;5013541;28;20026;-74
2022/12/19 09:08:51;;;;;;;23.13;9.65;;;11.70;65.90;;;;;;5013171;28;20034;-75
2022/12/19 09:11:18;;;;;;;27.83;11.15;;;11.70;65.80;;;;;;5021431;28;20033;-73
2022/12/19 09:13:45;;;;;;;25.40;11.05;;;11.70;66.20;;;;;;5013570;28;20579;-73
2022/12/19 09:16:15;;;;;;;35.60;12.13;;;11.70;66.00;;;;;;5013700;28;20514;-74
2022/12/19 09:18:45;;;;;;;27.55;11.13;;;11.70;66.10;;;;;;5013692;28;20022;-73
2022/12/19 09:21:12;;;;;;;29.42;11.32;;;11.70;66.00;;;;;;5013480;28;20387;-74
2022/12/19 09:23:38;;;;;;;25.13;10.23;;;11.70;66.20;;;;;;5013507;28;20030;-76
2022/12/19 09:26:09;;;;;;;24.00;9.95;;;11.70;66.20;;;;;;5013486;28;20061;-76
2022/12/19 09:28:36;;;;;;;22.38;10.00;;;11.80;66.00;;;;;;5013258;28;20034;-74
2022/12/19 09:31:11;;;;;;;19.27;9.18;;;11.80;66.40;;;;;;5013295;28;20484;-76
2022/12/19 09:33:38;;;;;;;22.00;9.10;;;11.80;66.80;;;;;;4995538;28;20022;-74
2022/12/19 09:36:04;;;;;;;21.63;7.50;;;11.90;66.20;;;;;;5013150;28;20036;-75
2022/12/19 09:38:31;;;;;;;17.65;8.07;;;11.90;66.20;;;;;;5013118;28;20030;-76
2022/12/19 09:40:57;;;;;;;16.33;7.35;;;11.90;66.30;;;;;;5013206;28;20040;-76
2022/12/19 09:43:34;;;;;;;16.92;7.00;;;11.90;66.40;;;;;;5013002;28;20018;-75
2022/12/19 09:46:06;;;;;;;18.63;7.15;;;11.90;66.20;;;;;;5013070;28;20112;-75
2022/12/19 09:48:31;;;;;;;12.57;6.57;;;11.90;66.40;;;;;;5012939;28;20451;-77
2022/12/19 09:51:16;;;;;;;13.40;6.15;;;12.00;66.50;;;;;;4995504;28;20125;-77
2022/12/19 09:53:50;;;;;;;11.88;5.47;;;12.00;66.50;;;;;;4995523;28;20626;-78
2022/12/19 09:56:17;;;;;;;11.30;5.45;;;12.00;66.40;;;;;;5013090;28;20030;-76
2022/12/19 09:58:48;;;;;;;10.63;5.57;;;12.00;66.00;;;;;;5012855;28;20550;-76
2022/12/19 10:01:49;;;;;;;11.38;4.40;;;12.10;66.60;;;;;;5012595;28;20034;-76
2022/12/19 10:04:17;;;;;;;9.35;5.10;;;12.10;66.20;;;;;;5002089;28;20029;-76
2022/12/19 10:06:43;;;;;;;6.47;3.92;;;12.10;66.40;;;;;;5012711;28;20022;-77
2022/12/19 10:09:15;;;;;;;9.05;4.38;;;12.10;66.40;;;;;;5012568;28;20034;-77
2022/12/19 10:11:59;;;;;;;10.38;4.00;;;12.10;66.40;;;;;;4994792;28;20032;-76
2022/12/19 10:14:43;;;;;;;9.10;4.05;;;12.10;66.20;;;;;;5012802;28;20033;-76
2022/12/19 10:17:27;;;;;;;7.07;4.00;;;12.20;66.20;;;;;;5012722;28;20080;-76
2022/12/19 10:20:19;;;;;;;11.75;4.20;;;12.20;66.40;;;;;;5012560;28;20101;-75
2022/12/19 10:22:57;;;;;;;6.13;3.83;;;12.20;66.20;;;;;;5012540;28;20545;-77
2022/12/19 10:25:42;;;;;;;8.13;3.65;;;12.20;66.20;;;;;;5012712;28;20478;-78
2022/12/19 10:28:31;;;;;;;6.35;2.95;;;12.20;66.10;;;;;;4995038;28;20029;-76
2022/12/19 10:31:26;;;;;;;5.28;2.83;;;12.30;66.60;;;;;;5012754;28;20052;-75
2022/12/19 10:34:05;;;;;;;5.75;2.83;;;12.20;65.90;;;;;;4995047;28;20026;-75
2022/12/19 10:36:44;;;;;;;5.87;3.00;;;12.20;66.00;;;;;;5012595;28;20065;-75
2022/12/19 10:39:29;;;;;;;5.57;2.95;;;12.30;66.00;;;;;;5012494;28;20057;-78
2022/12/19 10:42:10;;;;;;;5.32;2.80;;;12.30;66.00;;;;;;4994697;28;20028;-76
2022/12/19 10:44:38;;;;;;;6.32;2.25;;;12.30;66.20;;;;;;4994854;28;20018;-77
2022/12/19 10:47:04;;;;;;;5.50;2.67;;;12.30;66.30;;;;;;5012424;28;20518;-76
2022/12/19 10:49:30;;;;;;;5.38;2.88;;;12.30;66.20;;;;;;5012627;28;20030;-78
2022/12/19 10:51:59;;;;;;;6.05;3.25;;;12.40;66.30;;;;;;4994693;28;20353;-77
2022/12/19 10:54:37;;;;;;;4.22;2.45;;;12.40;66.00;;;;;;4994714;28;20022;-80
2022/12/19 10:57:21;;;;;;;4.60;2.45;;;12.40;66.20;;;;;;5010995;28;20030;-80
2022/12/19 11:00:02;;;;;;;5.45;2.75;;;12.40;66.00;;;;;;5012151;28;20026;-78
2022/12/19 11:02:37;;;;;;;3.75;2.17;;;12.40;66.30;;;;;;4994416;28;20270;-77
2022/12/19 11:05:28;;;;;;;4.90;2.58;;;12.40;66.20;;;;;;5012176;28;20030;-76
2022/12/19 11:08:05;;;;;;;5.82;2.67;;;12.40;66.20;;;;;;4994672;28;20180;-79
2022/12/19 11:10:47;;;;;;;5.10;2.30;;;12.50;66.40;;;;;;5012092;28;20037;-76
2022/12/19 11:13:27;;;;;;;4.15;2.83;;;12.50;66.30;;;;;;5012392;28;20026;-76
2022/12/19 11:15:55;;;;;;;2.92;2.17;;;12.50;66.70;;;;;;4994611;28;20511;-76
2022/12/19 11:18:21;;;;;;;2.90;2.15;;;12.50;66.80;;;;;;5012090;28;20412;-76
2022/12/19 11:20:57;;;;;;;2.97;1.80;;;12.50;66.60;;;;;;5012148;28;20054;-76
2022/12/19 11:23:24;;;;;;;3.55;1.67;;;12.50;66.60;;;;;;5012040;28;20373;-76
2022/12/19 11:26:03;;;;;;;5.32;2.15;;;12.50;66.60;;;;;;5015430;28;20057;-76
2022/12/19 11:28:35;;;;;;;3.40;1.92;;;12.60;67.00;;;;;;5015646;28;20109;-76
2022/12/19 11:31:20;;;;;;;3.17;2.10;;;12.50;66.80;;;;;;4997770;28;20526;-76
2022/12/19 11:33:52;;;;;;;2.20;1.67;;;12.60;66.80;;;;;;5015706;28;20032;-76
2022/12/19 11:36:42;;;;;;;2.72;1.80;;;12.70;66.70;;;;;;5015434;28;20033;-76
2022/12/19 11:39:17;;;;;;;2.75;1.88;;;12.60;66.40;;;;;;4997625;28;20108;-76
2022/12/19 11:41:53;;;;;;;3.08;1.80;;;12.60;66.50;;;;;;5015382;28;20029;-76
2022/12/19 11:44:33;;;;;;;3.33;1.50;;;12.60;66.40;;;;;;5015412;28;20472;-75
2022/12/19 11:47:27;;;;;;;2.03;1.63;;;12.60;66.40;;;;;;5015356;28;20435;-76
2022/12/19 11:50:00;;;;;;;3.15;1.95;;;12.60;66.40;;;;;;5015222;28;20332;-77
2022/12/19 11:52:39;;;;;;;2.08;1.70;;;12.70;66.60;;;;;;5015525;28;20345;-82
2022/12/19 11:55:22;;;;;;;2.28;1.70;;;12.60;66.30;;;;;;4997728;28;20057;-80
2022/12/19 11:57:48;;;;;;;2.78;1.67;;;12.70;66.50;;;;;;5015149;28;20045;-81
2022/12/19 12:00:20;;;;;;;2.45;1.70;;;12.70;66.80;;;;;;4997442;28;20517;-77
2022/12/19 12:03:34;;;;;;;4.05;1.75;;;12.70;66.50;;;;;;5014917;28;20436;-77
2022/12/19 12:06:02;;;;;;;2.55;1.98;;;12.70;66.60;;;;;;5001988;28;20037;-77
2022/12/19 12:08:40;;;;;;;9.10;2.35;;;12.70;66.80;;;;;;5014889;28;20033;-77
2022/12/19 12:11:22;;;;;;;3.35;1.75;;;12.80;66.60;;;;;;5014858;28;20026;-77
2022/12/19 12:14:14;;;;;;;1.88;1.40;;;12.80;67.00;;;;;;5014699;28;20026;-77
2022/12/19 12:17:31;;;;;;;2.05;1.67;;;12.80;67.00;;;;;;5014658;28;20057;-77
2022/12/19 12:20:28;;;;;;;3.58;2.10;;;12.90;67.50;;;;;;4981468;28;20042;-77
2022/12/19 12:22:59;;;;;;;4.80;1.90;;;12.90;67.40;;;;;;5014757;28;20025;-78
2022/12/19 12:25:45;;;;;;;2.10;1.80;;;12.90;67.20;;;;;;5014645;28;20415;-77
2022/12/19 12:28:46;;;;;;;3.58;1.50;;;12.90;67.00;;;;;;5014538;28;20021;-77
2022/12/19 12:31:17;;;;;;;;;;;12.90;66.90;;;;;;5014830;28;20056;-77
2022/12/19 12:34:05;;;;;;;2.47;1.55;;;12.90;66.80;;;;;;5014425;28;19906;-77
2022/12/19 12:36:37;;;;;;;2.08;1.60;;;12.90;66.80;;;;;;5013976;28;20064;-77
2022/12/19 12:39:22;;;;;;;1.90;1.70;;;12.90;66.90;;;;;;5014245;28;20033;-77
2022/12/19 12:42:05;;;;;;;4.78;1.80;;;12.90;66.80;;;;;;5014398;28;20503;-77
2022/12/19 12:44:39;;;;;;;2.33;1.42;;;12.90;66.70;;;;;;5014259;28;20062;-77
2022/12/19 12:47:19;;;;;;;2.33;1.45;;;12.90;66.70;;;;;;5014110;28;20022;-78
2022/12/19 12:50:02;;;;;;;2.72;2.08;;;13.00;66.50;;;;;;5014078;28;20034;-78
2022/12/19 12:53:03;;;;;;;3.78;1.85;;;13.00;66.90;;;;;;5014349;28;20040;-77
2022/12/19 12:55:30;;;;;;;2.67;1.75;;;13.00;66.60;;;;;;5001121;28;20385;-77
2022/12/19 12:57:56;;;;;;;2.70;1.70;;;13.00;66.70;;;;;;5012814;28;20468;-77
2022/12/19 13:00:22;;;;;;;5.45;2.15;;;13.00;66.90;;;;;;5013992;28;20029;-77
2022/12/19 13:03:04;;;;;;;2.60;1.70;;;13.10;66.70;;;;;;5013731;28;20431;-77
2022/12/19 13:05:45;;;;;;;2.30;1.52;;;13.10;66.60;;;;;;5014058;28;20041;-77
2022/12/19 13:08:44;;;;;;;2.20;1.40;;;13.10;66.50;;;;;;5012600;28;20026;-78
2022/12/19 13:14:33;;;;;;;2.90;1.60;;;13.00;66.50;;;;;;5014095;28;20029;-77
2022/12/19 13:17:10;;;;;;;1.67;1.58;;;13.10;66.60;;;;;;5013791;28;20037;-77
2022/12/19 13:20:09;;;;;;;1.73;1.52;;;13.10;65.80;;;;;;5013827;28;20061;-77
2022/12/19 13:22:37;;;;;;;2.10;1.40;;;13.10;66.40;;;;;;4980118;28;20412;-77
2022/12/19 13:25:25;;;;;;;3.75;1.58;;;13.10;66.30;;;;;;5013377;28;20025;-77
2022/12/19 13:27:57;;;;;;;3.50;1.80;;;13.20;66.50;;;;;;5013331;28;20045;-77